Time;durP1;ratioP1;P1;durP2;ratioP2;P2;SDS_P1;SDS_P2;PMS_P1;PMS_P2;Temp;Humidity;BMP_temperature;BMP_pressure;BME280_temperature;BME280_humidity;BME280_pressure;Samples;Min_cycle;Max_cycle;Signal;HPM_P1;HPM_P2
2021/11/14 00:01:11;;;;;;;8.13;6.45;;;13.60;80.40;;;;;;5153273;27;20070;-60
2021/11/14 00:03:37;;;;;;;8.30;6.65;;;13.60;80.40;;;;;;5150424;27;20072;-61
2021/11/14 00:06:04;;;;;;;9.77;7.53;;;13.60;80.40;;;;;;5153616;27;20034;-60
2021/11/14 00:08:31;;;;;;;7.78;6.47;;;13.60;80.40;;;;;;5153728;27;20066;-59
2021/11/14 00:11:00;;;;;;;8.13;6.78;;;13.60;80.40;;;;;;5135180;27;20088;-60
2021/11/14 00:13:28;;;;;;;7.22;6.22;;;13.60;80.40;;;;;;5153444;27;20134;-60
2021/11/14 00:15:54;;;;;;;8.25;7.40;;;13.60;80.40;;;;;;5134691;27;20043;-60
2021/11/14 00:18:20;;;;;;;8.30;6.65;;;13.60;80.30;;;;;;5153478;27;20039;-60
2021/11/14 00:20:46;;;;;;;9.80;7.15;;;13.60;80.40;;;;;;5134661;27;20042;-60
2021/11/14 00:23:14;;;;;;;9.20;7.22;;;13.60;80.40;;;;;;5153526;27;20497;-60
2021/11/14 00:25:40;;;;;;;8.75;6.70;;;13.60;80.40;;;;;;5153477;27;20039;-60
2021/11/14 00:28:08;;;;;;;9.38;7.43;;;13.60;80.40;;;;;;5153478;27;20078;-60
2021/11/14 00:30:35;;;;;;;9.95;7.82;;;13.60;80.30;;;;;;5153563;27;20046;-60
2021/11/14 00:33:01;;;;;;;8.60;6.85;;;13.60;80.40;;;;;;5153572;27;20118;-60
2021/11/14 00:35:27;;;;;;;8.80;7.68;;;13.60;80.30;;;;;;5152971;27;20043;-60
2021/11/14 00:37:53;;;;;;;7.88;6.40;;;13.60;80.40;;;;;;5153645;27;20053;-61
2021/11/14 00:40:26;;;;;;;8.63;7.10;;;13.60;80.40;;;;;;5135387;27;20139;-60
2021/11/14 00:42:53;;;;;;;8.30;6.53;;;13.60;80.40;;;;;;5157347;27;20039;-60
2021/11/14 00:45:19;;;;;;;9.15;7.38;;;13.60;80.30;;;;;;5157509;27;20043;-61
2021/11/14 00:47:45;;;;;;;8.10;7.03;;;13.60;80.30;;;;;;5157549;27;20038;-60
2021/11/14 00:50:12;;;;;;;10.63;7.72;;;13.60;80.30;;;;;;5156975;27;20035;-61
2021/11/14 00:52:42;;;;;;;9.35;7.78;;;13.60;80.30;;;;;;5157248;27;20118;-61
2021/11/14 00:55:10;;;;;;;8.40;6.68;;;13.60;80.30;;;;;;5157493;27;20431;-60
2021/11/14 00:57:36;;;;;;;9.52;7.07;;;13.50;80.30;;;;;;5157156;27;20125;-60
2021/11/14 01:00:07;;;;;;;7.72;6.65;;;13.60;80.40;;;;;;5157525;27;20524;-60
2021/11/14 01:02:33;;;;;;;8.85;7.43;;;13.60;80.30;;;;;;5138220;27;20127;-60
2021/11/14 01:04:58;;;;;;;7.50;6.22;;;13.60;80.30;;;;;;5156901;27;20125;-59
2021/11/14 01:07:24;;;;;;;9.63;8.02;;;13.60;80.30;;;;;;5156435;27;20034;-60
2021/11/14 01:09:50;;;;;;;8.75;6.97;;;13.60;80.30;;;;;;5138178;27;20130;-60
2021/11/14 01:12:15;;;;;;;9.75;7.38;;;13.60;80.30;;;;;;5156742;27;20042;-60
2021/11/14 01:14:41;;;;;;;10.18;7.35;;;13.60;80.30;;;;;;5156625;27;20053;-60
2021/11/14 01:17:07;;;;;;;8.60;7.15;;;13.60;80.30;;;;;;5156587;27;20439;-60
2021/11/14 01:19:32;;;;;;;10.40;7.90;;;13.60;80.30;;;;;;5138352;27;20083;-60
2021/11/14 01:21:58;;;;;;;9.38;7.53;;;13.60;80.30;;;;;;5139650;27;20363;-60
2021/11/14 01:24:24;;;;;;;8.32;7.03;;;13.60;80.30;;;;;;5136010;27;20143;-60
2021/11/14 01:26:49;;;;;;;9.25;6.75;;;13.60;80.30;;;;;;5135650;27;20043;-60
2021/11/14 01:29:15;;;;;;;9.23;7.38;;;13.60;80.30;;;;;;5135536;27;20043;-60
2021/11/14 01:31:41;;;;;;;8.85;7.07;;;13.60;80.30;;;;;;5135969;27;20382;-60
2021/11/14 01:34:07;;;;;;;8.45;6.68;;;13.60;80.30;;;;;;5116970;27;20127;-61
2021/11/14 01:36:36;;;;;;;8.10;6.75;;;13.60;80.30;;;;;;5135442;27;20103;-60
2021/11/14 01:39:05;;;;;;;9.77;7.43;;;13.60;80.30;;;;;;5135048;27;20054;-60
2021/11/14 01:41:31;;;;;;;9.88;7.32;;;13.60;80.30;;;;;;5135784;27;20078;-61
2021/11/14 01:43:58;;;;;;;8.05;6.72;;;13.60;80.30;;;;;;5135314;27;20035;-61
2021/11/14 01:46:23;;;;;;;9.32;6.95;;;13.60;80.30;;;;;;5135397;27;20039;-60
2021/11/14 01:48:51;;;;;;;9.40;7.35;;;13.60;80.30;;;;;;5135236;27;20031;-60
2021/11/14 01:51:18;;;;;;;9.35;7.13;;;13.60;80.30;;;;;;5135322;27;20043;-61
2021/11/14 01:53:44;;;;;;;8.52;6.93;;;13.60;80.30;;;;;;5133807;27;20113;-60
2021/11/14 01:56:13;;;;;;;7.90;6.47;;;13.60;80.30;;;;;;5135112;27;20046;-60
2021/11/14 01:58:40;;;;;;;8.88;7.43;;;13.60;80.30;;;;;;5135302;27;20096;-60
2021/11/14 02:01:13;;;;;;;9.25;7.10;;;13.60;80.30;;;;;;5135300;27;20060;-60
2021/11/14 02:03:45;;;;;;;10.30;7.70;;;13.60;80.30;;;;;;5135182;27;20051;-60
2021/11/14 02:06:11;;;;;;;9.88;7.72;;;13.60;80.30;;;;;;5134797;27;20450;-60
2021/11/14 02:08:39;;;;;;;9.70;7.70;;;13.60;80.30;;;;;;5134799;27;20043;-61
2021/11/14 02:11:06;;;;;;;8.05;7.10;;;13.60;80.30;;;;;;5134928;27;20110;-60
2021/11/14 02:13:32;;;;;;;10.25;7.50;;;13.60;80.30;;;;;;5134497;27;20062;-60
2021/11/14 02:15:58;;;;;;;10.25;7.63;;;13.60;80.30;;;;;;5143384;27;20038;-60
2021/11/14 02:18:24;;;;;;;9.23;7.72;;;13.60;80.30;;;;;;5155313;27;20049;-60
2021/11/14 02:20:51;;;;;;;9.18;7.65;;;13.60;80.30;;;;;;5155548;27;20039;-60
2021/11/14 02:23:19;;;;;;;9.55;7.50;;;13.60;80.30;;;;;;5136705;27;20035;-60
2021/11/14 02:25:47;;;;;;;8.30;6.18;;;13.60;80.30;;;;;;5155298;27;20042;-59
2021/11/14 02:28:13;;;;;;;9.75;7.22;;;13.60;80.30;;;;;;5155360;27;20050;-60
2021/11/14 02:30:40;;;;;;;9.02;7.53;;;13.60;80.30;;;;;;5155688;27;20041;-60
2021/11/14 02:33:06;;;;;;;9.07;7.32;;;13.70;80.30;;;;;;5155120;27;20042;-61
2021/11/14 02:35:34;;;;;;;8.38;6.88;;;13.60;80.30;;;;;;5155540;27;20057;-60
2021/11/14 02:38:00;;;;;;;10.30;7.72;;;13.60;80.30;;;;;;5155399;27;20038;-60
2021/11/14 02:40:26;;;;;;;9.18;7.22;;;13.60;80.30;;;;;;5154943;27;20034;-60
2021/11/14 02:42:52;;;;;;;8.77;6.70;;;13.60;80.30;;;;;;5155149;27;20087;-59
2021/11/14 02:45:21;;;;;;;9.63;7.20;;;13.60;80.30;;;;;;5154920;27;20483;-60
2021/11/14 02:47:49;;;;;;;9.30;7.18;;;13.60;80.30;;;;;;5155292;27;20060;-60
2021/11/14 02:50:15;;;;;;;10.07;7.60;;;13.60;80.30;;;;;;5155163;27;20040;-60
2021/11/14 02:52:41;;;;;;;9.25;7.32;;;13.60;80.20;;;;;;5155153;27;20110;-60
2021/11/14 02:55:11;;;;;;;10.15;7.18;;;13.70;80.30;;;;;;5154702;27;20538;-60
2021/11/14 02:57:37;;;;;;;9.93;7.47;;;13.60;80.30;;;;;;5154440;27;20091;-60
2021/11/14 03:00:10;;;;;;;9.15;7.30;;;13.70;80.30;;;;;;5154862;27;20048;-60
2021/11/14 03:02:36;;;;;;;12.65;7.65;;;13.60;80.20;;;;;;5154963;27;20045;-60
2021/11/14 03:05:14;;;;;;;10.07;7.65;;;13.60;80.20;;;;;;5154704;27;20042;-60
2021/11/14 03:07:42;;;;;;;9.77;8.18;;;13.60;80.20;;;;;;5154618;27;20180;-61
2021/11/14 03:10:11;;;;;;;10.52;7.95;;;13.60;80.20;;;;;;5154460;27;20420;-60
2021/11/14 03:12:37;;;;;;;9.05;7.38;;;13.60;80.20;;;;;;5154091;27;20121;-60
2021/11/14 03:15:03;;;;;;;9.35;7.85;;;13.60;80.20;;;;;;5154172;27;20125;-60
2021/11/14 03:17:29;;;;;;;9.38;7.07;;;13.60;80.20;;;;;;5154545;27;20187;-60
2021/11/14 03:19:54;;;;;;;9.80;7.57;;;13.60;80.20;;;;;;5154415;27;20087;-60
2021/11/14 03:22:20;;;;;;;8.90;7.43;;;13.60;80.20;;;;;;5135513;27;20401;-60
2021/11/14 03:24:48;;;;;;;9.27;6.97;;;13.60;80.20;;;;;;5154202;27;20038;-60
2021/11/14 03:27:15;;;;;;;9.85;8.10;;;13.60;80.20;;;;;;5154075;27;20042;-60
2021/11/14 03:29:42;;;;;;;11.57;8.15;;;13.60;80.20;;;;;;5154175;27;20126;-60
2021/11/14 03:32:13;;;;;;;10.23;7.47;;;13.60;80.20;;;;;;5154111;27;20131;-60
2021/11/14 03:34:39;;;;;;;10.73;7.90;;;13.60;80.20;;;;;;5154479;27;20087;-60
2021/11/14 03:37:19;;;;;;;11.27;8.55;;;13.60;80.20;;;;;;5154024;27;20079;-60
2021/11/14 03:39:45;;;;;;;9.40;7.65;;;13.60;80.10;;;;;;5154213;27;20164;-60
2021/11/14 03:42:11;;;;;;;8.68;7.07;;;13.60;80.20;;;;;;5135310;27;20082;-61
2021/11/14 03:44:37;;;;;;;11.68;8.05;;;13.60;80.20;;;;;;5153452;27;20035;-60
2021/11/14 03:47:04;;;;;;;10.35;8.23;;;13.60;80.20;;;;;;5154132;27;20134;-61
2021/11/14 03:49:30;;;;;;;11.55;8.32;;;13.60;80.20;;;;;;5154140;27;20496;-60
2021/11/14 03:51:56;;;;;;;8.98;7.22;;;13.60;80.20;;;;;;5154127;27;20043;-60
2021/11/14 03:54:23;;;;;;;9.90;8.40;;;13.60;80.20;;;;;;5154112;27;20041;-59
2021/11/14 03:56:49;;;;;;;10.40;8.13;;;13.60;80.20;;;;;;5152905;27;20134;-60
2021/11/14 03:59:14;;;;;;;11.90;8.40;;;13.50;80.10;;;;;;5153488;27;20467;-60
2021/11/14 04:01:40;;;;;;;10.75;8.13;;;13.60;80.50;;;;;;5134727;27;20061;-60
2021/11/14 04:04:06;;;;;;;10.27;8.10;;;13.60;80.20;;;;;;5154135;27;20043;-60
2021/11/14 04:06:32;;;;;;;11.07;7.78;;;13.60;80.10;;;;;;5154250;27;20038;-60
2021/11/14 04:08:59;;;;;;;10.32;7.88;;;13.60;80.20;;;;;;5154239;27;20046;-60
2021/11/14 04:11:25;;;;;;;11.80;8.32;;;13.60;80.20;;;;;;5153620;27;20050;-60
2021/11/14 04:13:53;;;;;;;10.35;8.23;;;13.60;80.20;;;;;;5153566;27;20082;-60
2021/11/14 04:16:19;;;;;;;11.60;7.97;;;13.60;80.10;;;;;;5155231;27;20046;-61
2021/11/14 04:18:45;;;;;;;12.10;8.13;;;13.50;80.10;;;;;;5157904;27;20035;-60
2021/11/14 04:21:11;;;;;;;10.27;7.35;;;13.60;80.20;;;;;;5158208;27;20151;-60
2021/11/14 04:23:39;;;;;;;11.23;8.13;;;13.60;80.10;;;;;;5157770;27;20034;-60
2021/11/14 04:26:07;;;;;;;12.48;8.70;;;13.60;80.20;;;;;;5158038;27;20053;-60
2021/11/14 04:28:34;;;;;;;11.73;8.23;;;13.60;80.20;;;;;;5157504;27;20471;-60
2021/11/14 04:31:00;;;;;;;11.73;8.45;;;13.60;80.20;;;;;;5157669;27;20121;-60
2021/11/14 04:33:26;;;;;;;11.63;8.82;;;13.60;80.20;;;;;;5158144;27;20081;-60
2021/11/14 04:35:52;;;;;;;11.32;8.68;;;13.60;80.20;;;;;;5157738;27;20043;-61
2021/11/14 04:38:18;;;;;;;11.57;9.00;;;13.60;80.20;;;;;;5157882;27;20134;-61
2021/11/14 04:40:44;;;;;;;11.25;7.55;;;13.60;80.10;;;;;;5157439;27;20035;-60
2021/11/14 04:43:12;;;;;;;9.98;7.60;;;13.60;80.10;;;;;;5157281;27;20489;-60
2021/11/14 04:45:39;;;;;;;9.95;7.13;;;13.60;80.20;;;;;;5157488;27;20046;-60
2021/11/14 04:48:06;;;;;;;9.50;7.20;;;13.60;80.20;;;;;;5157009;27;20477;-60
2021/11/14 04:50:32;;;;;;;11.02;7.88;;;13.60;80.10;;;;;;5138722;27;20057;-60
2021/11/14 04:52:58;;;;;;;10.73;7.95;;;13.60;80.20;;;;;;5157527;27;20039;-60
2021/11/14 04:55:24;;;;;;;9.73;7.82;;;13.60;80.20;;;;;;5138553;27;20470;-60
2021/11/14 04:57:52;;;;;;;10.45;8.30;;;13.60;80.20;;;;;;5157000;27;20043;-59
2021/11/14 05:00:28;;;;;;;11.43;8.25;;;13.60;80.20;;;;;;5156985;27;20493;-61
2021/11/14 05:02:54;;;;;;;11.50;8.38;;;13.60;80.10;;;;;;5156609;27;20043;-60
2021/11/14 05:05:20;;;;;;;10.57;7.50;;;13.60;80.20;;;;;;5156837;27;20058;-60
2021/11/14 05:07:47;;;;;;;9.63;7.43;;;13.60;80.80;;;;;;5157045;27;20031;-60
2021/11/14 05:10:13;;;;;;;9.68;8.02;;;13.60;80.20;;;;;;5156706;27;20054;-60
2021/11/14 05:12:39;;;;;;;11.75;8.73;;;13.50;80.10;;;;;;5156801;27;20119;-60
2021/11/14 05:15:07;;;;;;;11.13;8.20;;;13.50;80.10;;;;;;5156604;27;20107;-60
2021/11/14 05:17:33;;;;;;;9.57;8.07;;;13.50;80.10;;;;;;5156862;27;20049;-60
2021/11/14 05:19:59;;;;;;;9.80;7.53;;;13.60;80.20;;;;;;5156299;27;20502;-60
2021/11/14 05:22:25;;;;;;;10.95;8.10;;;13.60;80.20;;;;;;5156839;27;20060;-60
2021/11/14 05:24:51;;;;;;;9.63;7.65;;;13.60;80.20;;;;;;5156709;27;20093;-60
2021/11/14 05:27:16;;;;;;;11.20;7.75;;;13.60;80.10;;;;;;5155304;27;20143;-61
2021/11/14 05:29:42;;;;;;;11.27;8.55;;;13.60;80.10;;;;;;5138019;27;20095;-59
2021/11/14 05:32:09;;;;;;;10.98;8.00;;;13.60;80.20;;;;;;5156782;27;20038;-60
2021/11/14 05:34:35;;;;;;;11.57;8.75;;;13.60;80.20;;;;;;5155903;27;20046;-60
2021/11/14 05:37:00;;;;;;;10.48;7.80;;;13.60;80.10;;;;;;5156123;27;20043;-60
2021/11/14 05:39:26;;;;;;;10.88;8.23;;;13.60;80.10;;;;;;5137752;27;20043;-60
2021/11/14 05:41:52;;;;;;;10.82;7.40;;;13.60;80.10;;;;;;5156145;27;20081;-59
2021/11/14 05:44:18;;;;;;;9.07;7.50;;;13.60;80.10;;;;;;5155925;27;20043;-59
2021/11/14 05:46:44;;;;;;;11.50;8.35;;;13.50;80.10;;;;;;5156505;27;20116;-60
2021/11/14 05:49:10;;;;;;;10.38;8.05;;;13.50;80.10;;;;;;5137104;27;20043;-61
2021/11/14 05:51:36;;;;;;;10.60;7.57;;;13.50;80.10;;;;;;5155877;27;20152;-60
2021/11/14 05:54:03;;;;;;;10.00;7.97;;;13.60;80.20;;;;;;5156337;27;20193;-60
2021/11/14 05:56:30;;;;;;;9.77;7.38;;;13.60;80.10;;;;;;5155861;27;20050;-60
2021/11/14 05:59:09;;;;;;;10.73;7.85;;;13.50;80.10;;;;;;5155848;27;20039;-60
2021/11/14 06:06:38;;;;;;;10.93;7.57;;;13.60;80.10;;;;;;5155473;27;20099;-61
2021/11/14 06:09:04;;;;;;;10.88;7.57;;;13.50;80.10;;;;;;5155964;27;20432;-60
2021/11/14 06:11:30;;;;;;;10.00;7.65;;;13.60;80.10;;;;;;5155671;27;20043;-60
2021/11/14 06:13:55;;;;;;;9.30;7.25;;;13.60;80.10;;;;;;5155278;27;20053;-60
2021/11/14 06:16:21;;;;;;;10.13;7.95;;;13.60;80.10;;;;;;5155353;27;20108;-60
2021/11/14 06:18:47;;;;;;;10.13;7.47;;;13.60;80.10;;;;;;5155491;27;20497;-60
2021/11/14 06:21:13;;;;;;;9.68;7.75;;;13.50;80.00;;;;;;5155325;27;20050;-59
2021/11/14 06:23:39;;;;;;;11.20;8.20;;;13.60;80.10;;;;;;5155664;27;20038;-60
2021/11/14 06:26:05;;;;;;;10.52;7.97;;;13.60;80.10;;;;;;5155309;27;20047;-60
2021/11/14 06:28:31;;;;;;;10.40;7.75;;;13.50;80.00;;;;;;5155198;27;20034;-60
2021/11/14 06:30:57;;;;;;;10.68;8.23;;;13.60;80.10;;;;;;5155604;27;20057;-60
2021/11/14 06:33:23;;;;;;;11.23;7.85;;;13.50;80.10;;;;;;5136829;27;20043;-60
2021/11/14 06:35:49;;;;;;;9.38;7.75;;;13.50;80.00;;;;;;5155533;27;20114;-60
2021/11/14 06:38:15;;;;;;;10.50;7.60;;;13.50;80.00;;;;;;5154627;27;20493;-59
2021/11/14 06:40:41;;;;;;;10.45;7.80;;;13.60;80.00;;;;;;5155278;27;20043;-60
2021/11/14 06:43:08;;;;;;;10.10;7.25;;;13.50;80.00;;;;;;5155301;27;20113;-60
2021/11/14 06:45:33;;;;;;;10.60;8.38;;;13.60;80.10;;;;;;5154818;27;20107;-60
2021/11/14 06:47:59;;;;;;;10.02;7.35;;;13.50;80.00;;;;;;5154758;27;20066;-60
2021/11/14 06:50:25;;;;;;;10.07;7.82;;;13.50;80.00;;;;;;5155376;27;20047;-60
2021/11/14 06:52:51;;;;;;;10.48;7.40;;;13.50;80.00;;;;;;5135771;27;20479;-60
2021/11/14 06:55:18;;;;;;;9.82;7.57;;;13.50;80.00;;;;;;5154216;27;20031;-61
2021/11/14 06:57:45;;;;;;;9.93;7.28;;;13.50;80.00;;;;;;5154027;27;20493;-59
2021/11/14 07:00:15;;;;;;;9.48;7.45;;;13.60;80.00;;;;;;5154191;27;20075;-60
2021/11/14 07:02:40;;;;;;;9.63;7.40;;;13.50;80.00;;;;;;5153825;27;20482;-60
2021/11/14 07:05:06;;;;;;;8.75;7.10;;;13.60;80.10;;;;;;5154392;27;20042;-60
2021/11/14 07:07:33;;;;;;;10.05;7.70;;;13.60;80.00;;;;;;5154769;27;20035;-60
2021/11/14 07:09:59;;;;;;;9.18;7.40;;;13.50;79.90;;;;;;5154078;27;20095;-60
2021/11/14 07:12:26;;;;;;;9.48;7.60;;;13.50;79.90;;;;;;5154274;27;20034;-60
2021/11/14 07:14:53;;;;;;;11.00;8.63;;;13.60;80.00;;;;;;5135140;27;20059;-61
2021/11/14 07:17:22;;;;;;;11.23;7.85;;;13.50;79.90;;;;;;5154405;27;20141;-60
2021/11/14 07:19:48;;;;;;;9.45;7.25;;;13.50;79.90;;;;;;5154516;27;20043;-60
2021/11/14 07:22:14;;;;;;;9.80;7.60;;;13.50;79.90;;;;;;5135984;27;20405;-61
2021/11/14 07:24:40;;;;;;;10.00;7.80;;;13.50;79.90;;;;;;5134980;27;20114;-59
2021/11/14 07:27:06;;;;;;;9.77;7.15;;;13.50;79.90;;;;;;5154143;27;20096;-60
2021/11/14 07:29:32;;;;;;;9.95;7.43;;;13.50;79.90;;;;;;5154097;27;20122;-60
2021/11/14 07:31:57;;;;;;;9.35;7.63;;;13.50;79.90;;;;;;5154038;27;20085;-61
2021/11/14 07:34:23;;;;;;;9.57;7.88;;;13.50;79.90;;;;;;5154507;27;20534;-58
2021/11/14 07:36:49;;;;;;;10.40;7.57;;;13.50;79.90;;;;;;5154226;27;20047;-60
2021/11/14 07:39:15;;;;;;;10.43;7.35;;;13.50;79.90;;;;;;5154162;27;20058;-60
2021/11/14 07:41:40;;;;;;;11.35;7.70;;;13.50;79.90;;;;;;5153810;27;20039;-60
2021/11/14 07:44:06;;;;;;;8.50;7.22;;;13.60;79.90;;;;;;5153780;27;20043;-60
2021/11/14 07:46:32;;;;;;;11.70;7.30;;;13.50;79.80;;;;;;5154183;27;20118;-60
2021/11/14 07:48:58;;;;;;;11.13;7.60;;;13.60;79.90;;;;;;5134996;27;20399;-59
2021/11/14 07:51:24;;;;;;;10.48;7.90;;;13.50;79.80;;;;;;5134370;27;20053;-60
2021/11/14 07:53:49;;;;;;;12.13;8.38;;;13.60;79.90;;;;;;5135439;27;20042;-58
2021/11/14 07:56:15;;;;;;;10.55;7.47;;;13.50;79.80;;;;;;5153058;27;20049;-60
2021/11/14 07:58:41;;;;;;;10.60;8.57;;;13.50;79.80;;;;;;5153796;27;20034;-59
2021/11/14 08:01:07;;;;;;;9.63;7.57;;;13.50;79.80;;;;;;5153474;27;20190;-59
2021/11/14 08:03:33;;;;;;;10.35;7.75;;;13.50;79.80;;;;;;5135520;27;20043;-59
2021/11/14 08:06:01;;;;;;;10.73;7.30;;;13.50;79.80;;;;;;5154193;27;20093;-59
2021/11/14 08:08:26;;;;;;;9.05;7.13;;;13.40;79.80;;;;;;5135843;27;20078;-60
2021/11/14 08:10:52;;;;;;;11.75;8.52;;;13.40;79.80;;;;;;5135034;27;20454;-60
2021/11/14 08:13:18;;;;;;;10.30;7.75;;;13.50;79.80;;;;;;5133070;27;20061;-59
2021/11/14 08:15:44;;;;;;;11.07;7.90;;;13.50;79.80;;;;;;5149625;27;20058;-59
2021/11/14 08:18:10;;;;;;;12.23;8.32;;;13.50;79.80;;;;;;5151026;27;20092;-60
2021/11/14 08:20:36;;;;;;;11.50;8.45;;;13.50;79.80;;;;;;5153816;27;20114;-60
2021/11/14 08:23:04;;;;;;;10.60;7.65;;;13.50;79.80;;;;;;5153489;27;20570;-61
2021/11/14 08:25:29;;;;;;;9.75;7.78;;;13.50;79.80;;;;;;5153597;27;20486;-60
2021/11/14 08:27:56;;;;;;;10.18;7.70;;;13.50;79.80;;;;;;5152670;27;20122;-60
2021/11/14 08:30:22;;;;;;;10.88;8.18;;;13.60;79.90;;;;;;5134616;27;20066;-60
2021/11/14 08:32:48;;;;;;;11.77;8.50;;;13.50;79.90;;;;;;5153070;27;20050;-61
2021/11/14 08:35:14;;;;;;;11.32;7.53;;;13.50;79.80;;;;;;5116867;27;20047;-58
2021/11/14 08:37:40;;;;;;;9.90;7.70;;;13.50;79.80;;;;;;5153673;27;20482;-60
2021/11/14 08:40:07;;;;;;;9.98;7.82;;;13.60;79.90;;;;;;5153660;27;20035;-61
2021/11/14 08:42:33;;;;;;;10.80;7.72;;;13.50;79.80;;;;;;5154243;27;20053;-60
2021/11/14 08:44:59;;;;;;;11.57;8.13;;;13.50;79.80;;;;;;5153402;27;20402;-60
2021/11/14 08:47:25;;;;;;;10.82;8.90;;;13.50;79.80;;;;;;5153344;27;20138;-60
2021/11/14 08:49:51;;;;;;;10.10;8.35;;;13.50;79.80;;;;;;5153297;27;20063;-60
2021/11/14 08:52:16;;;;;;;11.38;8.25;;;13.50;79.80;;;;;;5153716;27;20055;-61
2021/11/14 08:54:43;;;;;;;11.45;8.32;;;13.50;79.80;;;;;;5153496;27;20058;-60
2021/11/14 08:57:09;;;;;;;10.68;7.38;;;13.50;79.80;;;;;;5152963;27;20046;-61
2021/11/14 08:59:35;;;;;;;10.55;7.88;;;13.50;79.80;;;;;;5146839;27;20046;-60
2021/11/14 09:02:02;;;;;;;10.75;8.23;;;13.60;79.90;;;;;;5143415;27;20494;-61
2021/11/14 09:04:28;;;;;;;9.45;7.45;;;13.50;80.50;;;;;;5136383;27;20051;-60
2021/11/14 09:06:55;;;;;;;10.20;7.90;;;13.50;79.80;;;;;;5133179;27;20100;-60
2021/11/14 09:09:22;;;;;;;10.23;7.47;;;13.50;79.80;;;;;;5136080;27;20508;-60
2021/11/14 09:11:49;;;;;;;10.88;7.78;;;13.50;79.80;;;;;;5136536;27;20122;-60
2021/11/14 09:14:15;;;;;;;12.55;8.85;;;13.50;79.80;;;;;;5135439;27;20051;-60
2021/11/14 09:16:42;;;;;;;11.55;8.40;;;13.50;79.80;;;;;;5131481;27;20089;-59
2021/11/14 09:19:09;;;;;;;12.13;8.43;;;13.50;79.80;;;;;;5157103;27;20420;-60
2021/11/14 09:21:38;;;;;;;10.35;7.60;;;13.50;79.80;;;;;;5136848;27;20106;-60
2021/11/14 09:24:08;;;;;;;10.48;7.30;;;13.50;79.80;;;;;;5138321;27;20137;-61
2021/11/14 09:26:34;;;;;;;11.18;8.48;;;13.50;79.90;;;;;;5156893;27;20134;-60
2021/11/14 09:29:00;;;;;;;11.35;8.13;;;13.50;79.80;;;;;;5137099;27;20066;-60
2021/11/14 09:31:26;;;;;;;12.55;8.40;;;13.50;79.80;;;;;;5156229;27;20042;-61
2021/11/14 09:33:54;;;;;;;10.70;8.02;;;13.50;79.80;;;;;;5156726;27;20038;-60
2021/11/14 09:36:21;;;;;;;10.82;8.50;;;13.50;79.80;;;;;;5155367;27;20046;-60
2021/11/14 09:38:48;;;;;;;11.00;8.07;;;13.50;79.80;;;;;;5156648;27;20043;-60
2021/11/14 09:41:14;;;;;;;10.60;7.15;;;13.50;79.80;;;;;;5156427;27;20038;-59
2021/11/14 09:43:40;;;;;;;12.52;8.45;;;13.50;79.80;;;;;;5155682;27;20031;-60
2021/11/14 09:46:07;;;;;;;12.75;8.57;;;13.50;79.80;;;;;;5154580;27;20494;-60
2021/11/14 09:48:33;;;;;;;12.05;8.27;;;13.50;79.80;;;;;;5156141;27;20478;-60
2021/11/14 09:50:59;;;;;;;11.43;7.90;;;13.60;79.90;;;;;;5147692;27;20072;-60
2021/11/14 09:53:28;;;;;;;12.43;8.77;;;13.50;79.80;;;;;;5136795;27;20070;-60
2021/11/14 09:55:54;;;;;;;11.48;8.30;;;13.50;79.80;;;;;;5135492;27;20397;-60
2021/11/14 09:58:21;;;;;;;11.00;8.20;;;13.50;79.80;;;;;;5135158;27;20110;-60
2021/11/14 10:00:47;;;;;;;10.73;7.45;;;13.50;79.80;;;;;;5136805;27;20074;-61
2021/11/14 10:03:13;;;;;;;11.50;8.15;;;13.50;79.80;;;;;;5134986;27;20142;-59
2021/11/14 10:05:39;;;;;;;11.98;8.80;;;13.50;79.80;;;;;;5134835;27;20419;-60
2021/11/14 10:08:07;;;;;;;10.63;7.78;;;13.50;79.80;;;;;;5116497;27;20429;-59
2021/11/14 10:10:44;;;;;;;12.00;8.75;;;13.50;79.80;;;;;;5135224;27;20043;-60
2021/11/14 10:13:37;;;;;;;12.52;8.70;;;13.50;79.80;;;;;;5153916;27;20039;-60
2021/11/14 10:16:05;;;;;;;10.65;8.05;;;13.50;79.70;;;;;;5149903;27;20090;-59
2021/11/14 10:18:31;;;;;;;11.98;8.90;;;13.50;79.80;;;;;;5154551;27;20078;-59
2021/11/14 10:20:59;;;;;;;11.27;7.60;;;13.50;79.80;;;;;;5154662;27;20126;-60
2021/11/14 10:23:26;;;;;;;10.70;8.18;;;13.50;79.80;;;;;;5145253;27;20046;-59
2021/11/14 10:25:54;;;;;;;11.25;7.88;;;13.50;79.80;;;;;;5155076;27;20070;-60
2021/11/14 10:28:20;;;;;;;11.98;7.75;;;13.50;79.80;;;;;;5153903;27;20045;-58
2021/11/14 10:30:47;;;;;;;11.07;7.68;;;13.50;79.80;;;;;;5158505;27;20124;-59
2021/11/14 10:33:18;;;;;;;11.05;7.90;;;13.50;79.80;;;;;;5143844;27;20088;-58
2021/11/14 10:35:48;;;;;;;11.68;8.20;;;13.50;79.80;;;;;;5148587;27;20045;-60
2021/11/14 10:38:18;;;;;;;12.52;8.43;;;13.50;79.80;;;;;;5135881;27;20093;-60
2021/11/14 10:40:50;;;;;;;11.35;8.75;;;13.50;79.80;;;;;;5135899;27;20541;-60
2021/11/14 10:43:21;;;;;;;10.73;7.88;;;13.50;79.80;;;;;;5134073;27;20046;-59
2021/11/14 10:45:47;;;;;;;12.05;8.15;;;13.50;79.80;;;;;;5161793;27;20053;-58
2021/11/14 10:48:18;;;;;;;12.15;7.97;;;13.50;79.80;;;;;;5173774;27;20042;-58
2021/11/14 10:50:48;;;;;;;10.23;7.95;;;13.50;79.80;;;;;;5174562;27;20129;-58
2021/11/14 10:53:17;;;;;;;9.98;7.90;;;13.50;79.80;;;;;;5169118;27;20500;-58
2021/11/14 10:55:52;;;;;;;10.35;7.75;;;13.50;79.80;;;;;;5153326;27;20097;-58
2021/11/14 10:58:24;;;;;;;10.53;8.57;;;13.50;79.80;;;;;;5153754;27;20035;-58
2021/11/14 11:00:53;;;;;;;11.60;8.35;;;13.50;79.80;;;;;;5154064;27;20299;-58
2021/11/14 11:03:19;;;;;;;10.60;8.38;;;13.50;79.80;;;;;;5135274;27;20038;-59
2021/11/14 11:05:47;;;;;;;9.68;7.80;;;13.50;79.80;;;;;;5144578;27;20054;-59
2021/11/14 11:08:21;;;;;;;10.68;8.55;;;13.50;79.80;;;;;;5154354;27;20051;-61
2021/11/14 11:10:52;;;;;;;11.35;8.18;;;13.50;79.80;;;;;;5154505;27;20420;-59
2021/11/14 11:13:32;;;;;;;11.20;8.40;;;13.50;79.80;;;;;;5153201;27;20039;-60
2021/11/14 11:16:21;;;;;;;9.43;7.32;;;13.50;79.70;;;;;;5123847;27;20410;-59
2021/11/14 11:18:58;;;;;;;10.35;7.55;;;13.50;79.70;;;;;;5132303;27;20514;-59
2021/11/14 11:21:31;;;;;;;11.40;7.80;;;13.50;79.70;;;;;;5131913;27;20100;-60
2021/11/14 11:24:13;;;;;;;10.48;7.72;;;13.50;79.80;;;;;;5133042;27;20478;-60
2021/11/14 11:26:51;;;;;;;9.82;7.55;;;13.50;79.70;;;;;;5134028;27;20180;-60
2021/11/14 11:29:19;;;;;;;9.93;7.72;;;13.50;79.80;;;;;;5113735;27;20049;-60
2021/11/14 11:31:46;;;;;;;10.77;8.23;;;13.50;79.80;;;;;;5133503;27;20116;-60
2021/11/14 11:34:16;;;;;;;10.27;7.55;;;13.50;79.70;;;;;;5153544;27;20050;-60
2021/11/14 11:36:42;;;;;;;11.68;8.27;;;13.50;79.70;;;;;;5127841;27;20039;-60
2021/11/14 11:39:08;;;;;;;10.15;7.38;;;13.50;79.70;;;;;;5132622;27;20102;-60
2021/11/14 11:41:35;;;;;;;10.73;7.63;;;13.50;79.70;;;;;;5132835;27;20459;-59
2021/11/14 11:44:03;;;;;;;10.75;7.93;;;13.50;79.70;;;;;;5132665;27;20039;-59
2021/11/14 11:46:31;;;;;;;9.32;7.43;;;13.50;79.70;;;;;;5132162;27;20055;-60
2021/11/14 11:49:00;;;;;;;10.00;7.22;;;13.50;79.70;;;;;;5151813;27;20041;-60
2021/11/14 11:51:33;;;;;;;10.13;7.22;;;13.50;79.70;;;;;;5153288;27;20050;-61
2021/11/14 11:54:05;;;;;;;9.82;7.78;;;13.50;79.70;;;;;;5153126;27;20118;-60
2021/11/14 11:56:46;;;;;;;9.10;7.35;;;13.50;79.70;;;;;;5153203;27;20054;-61
2021/11/14 11:59:18;;;;;;;8.98;7.20;;;13.50;79.70;;;;;;5136276;27;20088;-61
2021/11/14 12:01:48;;;;;;;9.38;7.40;;;13.50;79.70;;;;;;5114394;28;20058;-61
2021/11/14 12:04:45;;;;;;;10.20;7.40;;;13.50;79.80;;;;;;5151700;27;20145;-61
2021/11/14 12:07:16;;;;;;;;;;;13.50;79.60;;;;;;5127120;27;20067;-60
2021/11/14 12:10:05;;;;;;;9.30;7.60;;;13.50;79.60;;;;;;5136997;27;20005;-59
2021/11/14 12:12:43;;;;;;;10.77;8.27;;;13.50;79.80;;;;;;5132263;28;20039;-61
2021/11/14 12:15:27;;;;;;;10.45;8.00;;;13.50;79.80;;;;;;5142986;27;20051;-59
2021/11/14 12:18:00;;;;;;;10.00;7.32;;;13.50;79.70;;;;;;5152859;27;20556;-59
2021/11/14 12:20:51;;;;;;;9.77;7.65;;;13.50;79.80;;;;;;5136684;27;20131;-60
2021/11/14 12:23:31;;;;;;;8.45;6.53;;;13.50;79.70;;;;;;5113757;28;20051;-61
2021/11/14 12:25:59;;;;;;;10.45;7.78;;;13.50;79.80;;;;;;5134982;27;20046;-59
2021/11/14 12:28:28;;;;;;;8.85;6.97;;;13.50;79.80;;;;;;5152901;27;20094;-60
2021/11/14 12:30:57;;;;;;;10.82;7.38;;;13.50;79.80;;;;;;5150949;27;20134;-59
2021/11/14 12:33:25;;;;;;;10.07;7.43;;;13.50;79.80;;;;;;5164849;27;20088;-60
2021/11/14 12:35:59;;;;;;;10.20;7.28;;;13.50;79.80;;;;;;5156428;27;20134;-60
2021/11/14 12:38:28;;;;;;;12.52;8.13;;;13.50;79.70;;;;;;5156791;27;20398;-59
2021/11/14 12:41:09;;;;;;;10.23;7.72;;;13.50;79.80;;;;;;5154276;27;20035;-59
2021/11/14 12:43:44;;;;;;;11.48;8.30;;;13.60;79.80;;;;;;5149516;27;20091;-60
2021/11/14 12:46:16;;;;;;;11.32;8.30;;;13.50;79.80;;;;;;5156087;27;20134;-58
2021/11/14 12:48:45;;;;;;;8.45;7.20;;;13.50;79.80;;;;;;5156611;27;20060;-60